Time;durP1;ratioP1;P1;durP2;ratioP2;P2;SDS_P1;SDS_P2;PMS_P1;PMS_P2;Temp;Humidity;BMP_temperature;BMP_pressure;BME280_temperature;BME280_humidity;BME280_pressure;Samples;Min_cycle;Max_cycle;Signal;HPM_P1;HPM_P2
2021/08/12 00:00:20;;;;;;;10.17;9.20;;;;;23.30;100866.00;;;;2069949;28;20226;-54
2021/08/12 00:01:21;;;;;;;10.00;9.00;;;;;23.30;100879.00;;;;2071503;28;20733;-55
2021/08/12 00:02:21;;;;;;;9.32;8.48;;;;;23.30;100878.00;;;;2068707;28;20218;-55
2021/08/12 00:03:21;;;;;;;9.70;8.80;;;;;23.30;100883.00;;;;2069498;28;20594;-54
2021/08/12 00:04:22;;;;;;;9.70;8.80;;;;;23.30;100881.00;;;;2066223;28;20303;-54
2021/08/12 00:05:22;;;;;;;11.00;9.87;;;;;23.30;100888.00;;;;2068052;28;20226;-55
2021/08/12 00:06:22;;;;;;;9.80;8.90;;;;;23.30;100882.00;;;;2070891;28;20309;-55
2021/08/12 00:07:23;;;;;;;10.10;9.10;;;;;23.30;100882.00;;;;2067563;28;20313;-55
2021/08/12 00:08:23;;;;;;;9.23;8.33;;;;;23.30;100888.00;;;;2067349;28;20214;-55
2021/08/12 00:09:23;;;;;;;9.67;8.77;;;;;23.30;100880.00;;;;2066045;28;20342;-55
2021/08/12 00:10:24;;;;;;;10.07;9.07;;;;;23.30;100883.00;;;;2067144;28;20214;-55
2021/08/12 00:11:24;;;;;;;9.87;8.97;;;;;23.30;100879.00;;;;2071583;28;20224;-56
2021/08/12 00:12:24;;;;;;;10.40;8.73;;;;;23.30;100878.00;;;;2067922;28;20703;-54
2021/08/12 00:13:25;;;;;;;9.43;8.50;;;;;23.30;100875.00;;;;2068040;28;20627;-53
2021/08/12 00:14:25;;;;;;;10.00;9.00;;;;;23.30;100877.00;;;;2068024;28;20225;-55
2021/08/12 00:15:25;;;;;;;9.27;8.47;;;;;23.30;100869.00;;;;2068005;28;20246;-54
2021/08/12 00:16:26;;;;;;;9.70;8.80;;;;;23.30;100873.00;;;;2067895;28;20603;-54
2021/08/12 00:17:26;;;;;;;9.13;8.33;;;;;23.30;100869.00;;;;2069120;28;20261;-54
2021/08/12 00:18:27;;;;;;;9.10;8.20;;;;;23.30;100876.00;;;;2067210;28;20297;-55
2021/08/12 00:19:27;;;;;;;9.60;8.60;;;;;23.30;100874.00;;;;2071238;28;20567;-54
2021/08/12 00:20:27;;;;;;;8.90;8.00;;;;;23.30;100871.00;;;;2067220;28;20206;-54
2021/08/12 00:21:28;;;;;;;8.63;7.63;;;;;23.30;100872.00;;;;2067479;28;20213;-54
2021/08/12 00:22:28;;;;;;;8.60;7.80;;;;;23.30;100869.00;;;;2067409;28;20675;-54
2021/08/12 00:23:29;;;;;;;8.20;7.50;;;;;23.30;100878.00;;;;2067342;28;20218;-56
2021/08/12 00:24:29;;;;;;;9.43;7.83;;;;;23.30;100877.00;;;;2067520;28;20587;-56
2021/08/12 00:25:29;;;;;;;8.60;7.80;;;;;23.30;100870.00;;;;2063602;28;20225;-54
2021/08/12 00:26:30;;;;;;;8.33;7.53;;;;;23.30;100869.00;;;;2067418;28;20301;-54
2021/08/12 00:27:30;;;;;;;9.60;8.70;;;;;23.30;100876.00;;;;2063926;28;20219;-54
2021/08/12 00:28:30;;;;;;;8.63;7.73;;;;;23.30;100871.00;;;;2070806;28;20634;-54
2021/08/12 00:29:31;;;;;;;9.53;8.60;;;;;23.20;100867.00;;;;2067466;28;20581;-54
2021/08/12 00:30:31;;;;;;;9.17;8.27;;;;;23.30;100864.00;;;;2068654;28;20206;-55
2021/08/12 00:31:32;;;;;;;8.30;7.50;;;;;23.20;100870.00;;;;2070409;28;20210;-54
2021/08/12 00:32:32;;;;;;;8.30;7.50;;;;;23.20;100863.00;;;;2067666;28;20265;-54
2021/08/12 00:33:34;;;;;;;8.90;8.10;;;;;23.30;100865.00;;;;2068100;28;20552;-54
2021/08/12 00:34:35;;;;;;;8.10;7.40;;;;;23.30;100861.00;;;;2060078;28;20244;-55
2021/08/12 00:35:35;;;;;;;8.40;7.60;;;;;23.30;100864.00;;;;2066648;28;20215;-58
2021/08/12 00:36:35;;;;;;;8.30;7.50;;;;;23.30;100869.00;;;;2070744;28;20294;-56
2021/08/12 00:37:36;;;;;;;9.07;8.23;;;;;23.20;100865.00;;;;2068570;28;20297;-55
2021/08/12 00:38:36;;;;;;;7.97;7.17;;;;;23.20;100873.00;;;;2064539;28;20214;-55
2021/08/12 00:39:36;;;;;;;7.40;6.80;;;;;23.30;100876.00;;;;2067602;28;20215;-56
2021/08/12 00:40:37;;;;;;;8.50;7.70;;;;;23.20;100874.00;;;;2065602;28;20835;-54
2021/08/12 00:41:40;;;;;;;8.20;7.43;;;;;23.30;100876.00;;;;2056170;28;20215;-55
2021/08/12 00:42:40;;;;;;;7.50;6.90;;;;;23.30;100875.00;;;;2059492;28;20791;-54
2021/08/12 00:43:40;;;;;;;7.20;6.50;;;;;23.30;100870.00;;;;2059045;28;20258;-54
2021/08/12 00:44:41;;;;;;;8.10;7.30;;;;;23.30;100876.00;;;;2063095;28;20217;-54
2021/08/12 00:45:41;;;;;;;7.53;6.83;;;;;23.30;100875.00;;;;2056739;28;20267;-54
2021/08/12 00:46:41;;;;;;;7.47;6.83;;;;;23.30;100882.00;;;;2065727;28;20266;-55
2021/08/12 00:47:42;;;;;;;6.60;5.97;;;;;23.30;100876.00;;;;2066017;28;20215;-55
2021/08/12 00:48:42;;;;;;;7.17;6.57;;;;;23.30;100866.00;;;;2064882;28;20623;-56
2021/08/12 00:49:42;;;;;;;7.57;6.87;;;;;23.30;100879.00;;;;2058975;28;20227;-55
2021/08/12 00:50:43;;;;;;;8.17;7.37;;;;;23.20;100880.00;;;;2057620;28;20211;-54
2021/08/12 00:51:43;;;;;;;7.13;6.43;;;;;23.20;100871.00;;;;2057776;28;20254;-56
2021/08/12 00:52:44;;;;;;;6.90;6.17;;;;;23.20;100869.00;;;;2059806;28;20209;-55
2021/08/12 00:53:44;;;;;;;7.20;6.60;;;;;23.30;100880.00;;;;2049657;28;20298;-56
2021/08/12 00:54:45;;;;;;;6.67;6.03;;;;;23.30;100872.00;;;;2054641;28;20214;-54
2021/08/12 00:55:45;;;;;;;6.97;6.27;;;;;23.30;100872.00;;;;2058652;28;20298;-54
2021/08/12 00:56:47;;;;;;;7.30;6.70;;;;;23.30;100871.00;;;;2063227;28;20710;-55
2021/08/12 00:57:47;;;;;;;7.10;6.40;;;;;23.30;100875.00;;;;2060358;28;20241;-55
2021/08/12 00:58:47;;;;;;;7.53;6.73;;;;;23.30;100875.00;;;;2061920;28;20226;-55
2021/08/12 00:59:48;;;;;;;6.80;6.20;;;;;23.30;100867.00;;;;2059880;28;20858;-55
2021/08/12 01:00:51;;;;;;;6.90;6.30;;;;;23.30;100870.00;;;;2067042;28;20634;-55
2021/08/12 01:01:52;;;;;;;6.80;6.22;;;;;23.30;100871.00;;;;2066572;28;20241;-55
2021/08/12 01:02:52;;;;;;;7.50;6.80;;;;;23.20;100872.00;;;;2064866;28;20209;-55
2021/08/12 01:03:54;;;;;;;6.60;6.00;;;;;23.20;100868.00;;;;2060092;28;20261;-54
2021/08/12 01:04:55;;;;;;;6.55;5.95;;;;;23.20;100866.00;;;;2060573;28;20203;-54
2021/08/12 01:05:55;;;;;;;6.17;5.57;;;;;23.20;100850.00;;;;2060661;28;20257;-54
2021/08/12 01:07:09;;;;;;;6.63;6.03;;;;;23.20;100862.00;;;;2056067;28;20227;-54
2021/08/12 01:08:18;;;;;;;8.80;6.30;;;;;23.20;100837.00;;;;2050178;28;20303;-57
2021/08/12 01:09:32;;;;;;;6.70;6.10;;;;;23.20;100858.00;;;;2065857;28;20257;-54
2021/08/12 01:10:46;;;;;;;6.50;5.90;;;;;23.20;100853.00;;;;2061098;28;20226;-54
2021/08/12 01:11:52;;;;;;;6.35;5.75;;;;;23.30;100858.00;;;;2059505;28;20620;-54
2021/08/12 01:13:04;;;;;;;6.30;5.80;;;;;23.20;100853.00;;;;2066783;28;20610;-54
2021/08/12 01:14:12;;;;;;;6.20;5.70;;;;;23.20;100858.00;;;;2067067;28;20226;-55
2021/08/12 01:15:16;;;;;;;6.25;5.65;;;;;23.20;100849.00;;;;2062462;28;20215;-54
2021/08/12 01:16:17;;;;;;;6.45;5.90;;;;;23.20;100854.00;;;;2050780;28;20739;-54
2021/08/12 01:17:20;;;;;;;6.10;5.55;;;;;23.20;100857.00;;;;2042981;28;20216;-55
2021/08/12 01:18:43;;;;;;;6.00;5.50;;;;;23.30;100857.00;;;;2058597;28;20278;-55
2021/08/12 01:19:46;;;;;;;6.28;5.78;;;;;23.30;100858.00;;;;2058727;28;20560;-55
2021/08/12 01:21:09;;;;;;;6.45;5.72;;;;;23.20;100859.00;;;;2066148;28;20297;-55
2021/08/12 01:22:10;;;;;;;6.13;5.53;;;;;23.20;100852.00;;;;2059379;28;20758;-55
2021/08/12 01:23:11;;;;;;;5.70;5.20;;;;;23.20;100859.00;;;;2062810;28;20277;-55
2021/08/12 01:24:11;;;;;;;6.57;6.00;;;;;23.20;100861.00;;;;2058618;28;20822;-54
2021/08/12 01:25:26;;;;;;;6.03;5.53;;;;;23.20;100858.00;;;;2069391;28;20242;-54
2021/08/12 01:26:27;;;;;;;5.82;5.32;;;;;23.20;100879.00;;;;2056271;28;20235;-55
2021/08/12 01:27:31;;;;;;;5.23;4.83;;;;;23.20;100867.00;;;;2050128;28;20607;-54
2021/08/12 01:28:38;;;;;;;5.55;5.05;;;;;23.20;100863.00;;;;2057999;28;20218;-54
2021/08/12 01:29:55;;;;;;;6.22;5.72;;;;;23.20;100863.00;;;;2053401;28;20219;-55
2021/08/12 01:31:38;;;;;;;5.57;5.07;;;;;23.20;100863.00;;;;2058133;28;20302;-54
2021/08/12 01:33:10;;;;;;;5.82;5.32;;;;;23.20;100864.00;;;;2056957;28;20238;-54
2021/08/12 01:34:37;;;;;;;5.80;5.30;;;;;23.20;100855.00;;;;2065151;28;20227;-54
2021/08/12 01:35:38;;;;;;;5.90;5.40;;;;;23.20;100856.00;;;;2063130;28;20325;-54
2021/08/12 01:36:40;;;;;;;6.00;5.40;;;;;23.20;100857.00;;;;2059445;28;20223;-55
2021/08/12 01:37:55;;;;;;;6.68;5.40;;;;;23.20;100853.00;;;;2062754;28;20242;-56
2021/08/12 01:38:56;;;;;;;5.55;5.05;;;;;23.20;100859.00;;;;2060082;28;20203;-54
2021/08/12 01:39:56;;;;;;;5.50;5.00;;;;;23.20;100860.00;;;;2063854;28;20298;-55
2021/08/12 01:40:57;;;;;;;5.93;5.33;;;;;23.20;100853.00;;;;2058181;28;20210;-55
2021/08/12 01:41:57;;;;;;;5.30;4.80;;;;;23.20;100860.00;;;;2063877;28;20207;-54
2021/08/12 01:42:57;;;;;;;5.63;5.20;;;;;23.20;100855.00;;;;2065309;28;20207;-55
2021/08/12 01:43:58;;;;;;;5.40;4.90;;;;;23.20;100849.00;;;;2049356;28;20212;-55
2021/08/12 01:44:59;;;;;;;5.07;4.63;;;;;23.20;100852.00;;;;2064128;28;20219;-55
2021/08/12 01:45:59;;;;;;;5.87;5.30;;;;;23.20;100856.00;;;;2059826;28;20866;-53
2021/08/12 01:46:59;;;;;;;5.43;4.97;;;;;23.20;100855.00;;;;2056804;28;20250;-55
2021/08/12 01:48:00;;;;;;;5.30;4.80;;;;;23.20;100851.00;;;;2063438;28;20219;-54
2021/08/12 01:49:01;;;;;;;6.10;5.60;;;;;23.20;100847.00;;;;2064074;28;20215;-55
2021/08/12 01:50:05;;;;;;;5.45;4.95;;;;;23.20;100854.00;;;;2069011;28;20218;-55
2021/08/12 01:51:06;;;;;;;6.18;5.45;;;;;23.20;100854.00;;;;2060659;28;20219;-54
2021/08/12 01:52:06;;;;;;;5.90;5.40;;;;;23.20;100849.00;;;;2062334;28;20218;-55
2021/08/12 01:53:07;;;;;;;5.60;5.10;;;;;23.20;100856.00;;;;2058145;28;20724;-54
2021/08/12 01:54:07;;;;;;;5.20;4.70;;;;;23.20;100854.00;;;;2051391;28;20218;-55
2021/08/12 01:55:08;;;;;;;4.97;4.57;;;;;23.20;100843.00;;;;2060829;28;20222;-55
2021/08/12 01:56:08;;;;;;;4.80;4.40;;;;;23.20;100851.00;;;;2055965;28;20231;-55
2021/08/12 01:57:08;;;;;;;5.73;5.23;;;;;23.20;100854.00;;;;2052370;28;20224;-55
2021/08/12 01:58:11;;;;;;;5.13;4.73;;;;;23.20;100845.00;;;;2058668;28;20249;-55
2021/08/12 01:59:11;;;;;;;5.07;4.63;;;;;23.20;100849.00;;;;2071260;28;20220;-54
2021/08/12 02:00:12;;;;;;;5.33;4.93;;;;;23.20;100856.00;;;;2067526;28;20861;-54
2021/08/12 02:01:12;;;;;;;5.13;4.72;;;;;23.20;100833.00;;;;2065025;28;20211;-54
2021/08/12 02:02:13;;;;;;;5.97;5.30;;;;;23.20;100844.00;;;;2058888;28;20345;-53
2021/08/12 02:03:17;;;;;;;5.20;4.70;;;;;23.20;100847.00;;;;2067717;28;20218;-54
2021/08/12 02:04:18;;;;;;;5.03;4.63;;;;;23.20;100836.00;;;;2066937;28;20210;-55
2021/08/12 02:05:18;;;;;;;5.33;4.80;;;;;23.20;100835.00;;;;2069303;28;20324;-56
2021/08/12 02:06:19;;;;;;;5.50;5.00;;;;;23.20;100831.00;;;;2066802;28;20314;-56
2021/08/12 02:07:19;;;;;;;4.97;4.57;;;;;23.20;100844.00;;;;2067173;28;20269;-54
2021/08/12 02:08:20;;;;;;;4.80;4.40;;;;;23.20;100828.00;;;;2066660;28;20468;-53
2021/08/12 02:09:21;;;;;;;4.80;4.40;;;;;23.20;100832.00;;;;2058017;28;20266;-55
2021/08/12 02:10:21;;;;;;;5.33;4.83;;;;;23.20;100830.00;;;;2060472;28;20243;-54
2021/08/12 02:11:21;;;;;;;5.30;4.90;;;;;23.20;100833.00;;;;2062145;28;20257;-54
2021/08/12 02:12:22;;;;;;;4.73;4.33;;;;;23.20;100824.00;;;;2079225;28;20225;-55
2021/08/12 02:13:24;;;;;;;5.10;4.67;;;;;23.20;100824.00;;;;2074713;28;20218;-53
2021/08/12 02:14:25;;;;;;;5.35;4.85;;;;;23.20;100827.00;;;;2062929;28;20254;-54
2021/08/12 02:15:25;;;;;;;4.97;4.57;;;;;23.20;100819.00;;;;2063915;28;20695;-54
2021/08/12 02:16:25;;;;;;;5.60;5.10;;;;;23.20;100830.00;;;;2065342;28;20264;-55
2021/08/12 02:17:26;;;;;;;4.80;4.40;;;;;23.20;100818.00;;;;2065152;28;20211;-53
2021/08/12 02:18:26;;;;;;;4.93;4.53;;;;;23.20;100818.00;;;;2063514;28;20211;-54
2021/08/12 02:19:27;;;;;;;4.73;4.33;;;;;23.20;100820.00;;;;2060526;28;20337;-54
2021/08/12 02:20:28;;;;;;;5.00;4.60;;;;;23.10;100821.00;;;;2059286;28;20211;-54
2021/08/12 02:21:33;;;;;;;5.20;4.80;;;;;23.20;100823.00;;;;2071548;28;20978;-54
2021/08/12 02:22:37;;;;;;;5.15;4.75;;;;;23.20;100826.00;;;;2066522;28;20209;-53
2021/08/12 02:23:42;;;;;;;4.65;4.25;;;;;23.10;100828.00;;;;2064187;28;20207;-54
2021/08/12 02:24:51;;;;;;;5.35;4.88;;;;;23.10;100817.00;;;;2060556;28;20696;-54
2021/08/12 02:25:58;;;;;;;5.72;5.13;;;;;23.20;100828.00;;;;2067632;28;20729;-55
2021/08/12 02:27:00;;;;;;;4.57;4.18;;;;;23.10;100824.00;;;;2067392;28;20321;-54
2021/08/12 02:28:05;;;;;;;4.80;4.32;;;;;23.10;100824.00;;;;2059999;28;20211;-55
2021/08/12 02:29:06;;;;;;;4.85;4.45;;;;;23.00;100837.00;;;;2072126;28;20241;-55
2021/08/12 02:30:07;;;;;;;4.47;4.17;;;;;23.10;100830.00;;;;2067629;28;20602;-54
2021/08/12 02:31:08;;;;;;;4.75;4.35;;;;;23.10;100835.00;;;;2059349;28;20463;-54
2021/08/12 02:32:09;;;;;;;5.20;4.80;;;;;23.10;100827.00;;;;2061892;28;20226;-53
2021/08/12 02:33:14;;;;;;;4.47;4.15;;;;;23.10;100828.00;;;;2060186;28;20242;-55
2021/08/12 02:34:14;;;;;;;4.88;4.30;;;;;23.10;100831.00;;;;2066322;28;20285;-54
2021/08/12 02:35:15;;;;;;;4.93;4.50;;;;;23.20;100831.00;;;;2062782;28;20285;-55
2021/08/12 02:36:15;;;;;;;4.90;4.43;;;;;23.10;100831.00;;;;2059303;28;20302;-54
2021/08/12 02:37:17;;;;;;;4.90;4.43;;;;;23.10;100832.00;;;;2060595;28;20225;-55
2021/08/12 02:38:18;;;;;;;5.10;4.68;;;;;23.10;100819.00;;;;2059765;28;20212;-54
2021/08/12 02:39:18;;;;;;;4.90;4.50;;;;;23.10;100819.00;;;;2067380;28;20226;-54
2021/08/12 02:40:19;;;;;;;4.90;4.50;;;;;23.10;100826.00;;;;2069329;28;20761;-55
2021/08/12 02:41:19;;;;;;;4.60;4.20;;;;;23.10;100823.00;;;;2067575;28;20353;-53
2021/08/12 02:42:20;;;;;;;4.70;4.30;;;;;23.10;100822.00;;;;2067450;28;20265;-56
2021/08/12 02:43:20;;;;;;;5.27;4.73;;;;;23.10;100828.00;;;;2059320;28;20692;-54
2021/08/12 02:44:20;;;;;;;4.70;4.33;;;;;23.10;100827.00;;;;2067704;28;20219;-54
2021/08/12 02:45:22;;;;;;;4.70;4.30;;;;;23.10;100813.00;;;;2059120;28;20215;-54
2021/08/12 02:46:22;;;;;;;5.20;4.60;;;;;23.10;100821.00;;;;2051755;28;20230;-55
2021/08/12 02:47:23;;;;;;;4.90;4.50;;;;;23.10;100830.00;;;;2071645;28;20238;-55
2021/08/12 02:48:25;;;;;;;5.80;4.97;;;;;23.10;100822.00;;;;2067185;28;20657;-54
2021/08/12 02:49:27;;;;;;;4.60;4.20;;;;;23.10;100822.00;;;;2055253;28;20735;-54
2021/08/12 02:50:27;;;;;;;5.20;4.70;;;;;23.10;100821.00;;;;2067863;28;20556;-54
2021/08/12 02:51:28;;;;;;;4.90;4.40;;;;;23.10;100820.00;;;;2076527;28;20244;-54
2021/08/12 02:52:28;;;;;;;4.50;4.10;;;;;23.10;100831.00;;;;2050344;28;20216;-55
2021/08/12 02:53:29;;;;;;;5.00;4.23;;;;;23.10;100824.00;;;;2069982;28;20217;-55
2021/08/12 02:54:30;;;;;;;4.60;4.20;;;;;23.10;100825.00;;;;2076474;28;20234;-55
2021/08/12 02:55:30;;;;;;;4.90;4.50;;;;;23.10;100829.00;;;;2064194;28;20204;-54
2021/08/12 02:56:30;;;;;;;4.07;3.73;;;;;23.10;100832.00;;;;2063423;28;20203;-55
2021/08/12 02:57:31;;;;;;;4.50;4.20;;;;;23.10;100830.00;;;;2067426;28;20277;-56
2021/08/12 02:58:33;;;;;;;4.10;3.70;;;;;23.10;100831.00;;;;2067233;28;20207;-55
2021/08/12 02:59:33;;;;;;;4.70;4.30;;;;;23.10;100829.00;;;;2070746;28;20210;-54
2021/08/12 03:00:33;;;;;;;4.23;3.83;;;;;23.10;100824.00;;;;2061624;28;20234;-55
2021/08/12 03:01:34;;;;;;;4.73;4.33;;;;;23.10;100822.00;;;;2063312;28;20217;-55
2021/08/12 03:02:34;;;;;;;4.47;4.07;;;;;23.10;100823.00;;;;2055450;28;20291;-54
2021/08/12 03:03:35;;;;;;;4.50;4.10;;;;;23.10;100832.00;;;;2062232;28;20630;-55
2021/08/12 03:04:36;;;;;;;5.17;4.67;;;;;23.10;100832.00;;;;2064547;28;20213;-54
2021/08/12 03:05:36;;;;;;;4.30;3.93;;;;;23.10;100829.00;;;;2066460;28;20542;-54
2021/08/12 03:06:37;;;;;;;4.30;3.90;;;;;23.10;100833.00;;;;2052523;28;20231;-54
2021/08/12 03:07:38;;;;;;;4.50;4.10;;;;;23.10;100824.00;;;;2064820;28;20200;-54
2021/08/12 03:08:38;;;;;;;4.70;4.30;;;;;23.10;100823.00;;;;2067514;28;20322;-54
2021/08/12 03:09:39;;;;;;;4.37;3.97;;;;;23.10;100830.00;;;;2068165;28;20218;-54
2021/08/12 03:10:39;;;;;;;4.73;4.33;;;;;23.10;100825.00;;;;2062606;28;20222;-55
2021/08/12 03:11:39;;;;;;;4.30;3.90;;;;;23.10;100827.00;;;;2057680;28;20239;-54
2021/08/12 03:12:40;;;;;;;4.57;4.17;;;;;23.10;100830.00;;;;2069194;28;20754;-55
2021/08/12 03:13:40;;;;;;;4.30;3.90;;;;;23.10;100833.00;;;;2070132;28;20262;-55
2021/08/12 03:14:41;;;;;;;4.60;4.20;;;;;23.10;100828.00;;;;2061540;28;20258;-53
2021/08/12 03:15:41;;;;;;;4.03;3.73;;;;;23.10;100838.00;;;;2061017;28;20258;-53
2021/08/12 03:16:42;;;;;;;4.60;4.23;;;;;23.10;100825.00;;;;2062367;28;20301;-56
2021/08/12 03:17:42;;;;;;;4.87;4.07;;;;;23.10;100837.00;;;;2053591;28;20216;-56
2021/08/12 03:18:43;;;;;;;4.27;3.97;;;;;23.10;100829.00;;;;2061213;28;20215;-55
2021/08/12 03:19:44;;;;;;;4.00;3.70;;;;;23.10;100836.00;;;;2057091;28;20207;-56
2021/08/12 03:20:44;;;;;;;4.60;4.20;;;;;23.10;100836.00;;;;2060650;28;20557;-55
2021/08/12 03:22:01;;;;;;;5.10;3.83;;;;;23.10;100824.00;;;;2060338;28;20262;-54
2021/08/12 03:23:02;;;;;;;4.57;4.18;;;;;23.10;100821.00;;;;2063666;28;20218;-55
2021/08/12 03:24:04;;;;;;;5.07;4.63;;;;;23.10;100827.00;;;;2051387;28;20601;-54
2021/08/12 03:25:05;;;;;;;4.35;3.95;;;;;23.10;100819.00;;;;2044147;28;20788;-54
2021/08/12 03:26:05;;;;;;;4.73;4.30;;;;;23.10;100827.00;;;;2051782;28;20290;-54
2021/08/12 03:27:10;;;;;;;4.40;4.10;;;;;23.10;100818.00;;;;2064179;28;20476;-56
2021/08/12 03:28:11;;;;;;;4.60;4.20;;;;;23.10;100818.00;;;;2060975;28;20231;-53
2021/08/12 03:29:11;;;;;;;3.97;3.67;;;;;23.10;100821.00;;;;2060697;28;20231;-54
2021/08/12 03:30:12;;;;;;;4.40;4.00;;;;;23.10;100817.00;;;;2063689;28;20587;-55
2021/08/12 03:31:12;;;;;;;4.53;4.17;;;;;23.10;100816.00;;;;2063804;28;20214;-54
2021/08/12 03:32:12;;;;;;;4.43;4.03;;;;;23.10;100821.00;;;;2069580;28;20659;-53
2021/08/12 03:33:13;;;;;;;4.33;3.93;;;;;23.10;100820.00;;;;2060061;28;20307;-54
2021/08/12 03:34:13;;;;;;;4.23;3.90;;;;;23.10;100813.00;;;;2060078;28;20242;-54
2021/08/12 03:35:14;;;;;;;4.03;3.60;;;;;23.10;100815.00;;;;2058091;28;20266;-55
2021/08/12 03:36:14;;;;;;;3.97;3.67;;;;;23.10;100808.00;;;;2056729;28;20342;-55
2021/08/12 03:37:14;;;;;;;4.50;4.10;;;;;23.10;100809.00;;;;2060942;28;20195;-54
2021/08/12 03:38:15;;;;;;;4.77;4.10;;;;;23.10;100813.00;;;;2057461;28;20218;-54
2021/08/12 03:39:15;;;;;;;4.30;3.90;;;;;23.10;100815.00;;;;2068629;28;20210;-54
2021/08/12 03:40:15;;;;;;;4.13;3.77;;;;;23.10;100809.00;;;;2070922;28;20692;-55
2021/08/12 03:41:16;;;;;;;4.20;3.90;;;;;23.10;100817.00;;;;2064398;28;20293;-54
2021/08/12 03:42:16;;;;;;;4.37;3.97;;;;;23.10;100819.00;;;;2066422;28;20224;-54
2021/08/12 03:43:17;;;;;;;5.20;4.00;;;;;23.10;100815.00;;;;2069052;28;20222;-56
2021/08/12 03:44:17;;;;;;;4.93;4.43;;;;;23.10;100813.00;;;;2068707;28;20221;-55
2021/08/12 03:45:18;;;;;;;4.70;4.30;;;;;23.10;100812.00;;;;2068161;28;20198;-53
2021/08/12 03:46:18;;;;;;;4.50;4.13;;;;;23.10;100804.00;;;;2067847;28;20274;-55
2021/08/12 03:47:19;;;;;;;4.43;4.10;;;;;23.10;100801.00;;;;2071519;28;20849;-54
2021/08/12 03:48:19;;;;;;;4.10;3.80;;;;;23.10;100802.00;;;;2064311;28;20229;-55
2021/08/12 03:49:20;;;;;;;4.43;4.03;;;;;23.10;100806.00;;;;2070860;28;20237;-55
2021/08/12 03:50:20;;;;;;;4.07;3.73;;;;;23.10;100800.00;;;;2065213;28;20257;-54
2021/08/12 03:51:20;;;;;;;4.53;4.13;;;;;23.10;100803.00;;;;2068187;28;20210;-56
2021/08/12 03:52:21;;;;;;;4.63;4.23;;;;;23.10;100805.00;;;;2068178;28;20214;-54
2021/08/12 03:53:23;;;;;;;5.07;4.67;;;;;23.10;100807.00;;;;2065047;28;20265;-54
2021/08/12 03:54:23;;;;;;;4.88;4.05;;;;;23.10;100810.00;;;;2067588;28;20217;-55
2021/08/12 03:55:24;;;;;;;4.47;4.17;;;;;23.10;100805.00;;;;2067667;28;20242;-53
2021/08/12 03:56:24;;;;;;;4.10;3.80;;;;;23.10;100806.00;;;;2068903;28;20352;-54
2021/08/12 03:57:24;;;;;;;4.43;4.03;;;;;23.10;100818.00;;;;2066653;28;20223;-55
2021/08/12 03:58:25;;;;;;;4.70;3.63;;;;;23.10;100811.00;;;;2067636;28;20297;-55
2021/08/12 03:59:25;;;;;;;4.90;4.00;;;;;23.10;100812.00;;;;2066443;28;20221;-55
2021/08/12 04:00:25;;;;;;;4.00;3.70;;;;;23.10;100823.00;;;;2067527;28;20218;-53
2021/08/12 04:01:26;;;;;;;4.60;4.20;;;;;23.10;100812.00;;;;2067748;28;20719;-53
2021/08/12 04:02:26;;;;;;;4.60;4.20;;;;;23.10;100820.00;;;;2067677;28;20637;-55
2021/08/12 04:03:26;;;;;;;4.20;3.73;;;;;23.10;100820.00;;;;2064572;28;20205;-53
2021/08/12 04:04:27;;;;;;;4.40;4.00;;;;;23.10;100826.00;;;;2074831;28;20220;-56
2021/08/12 04:05:27;;;;;;;4.47;4.07;;;;;23.10;100825.00;;;;2070860;28;20349;-55
2021/08/12 04:06:27;;;;;;;4.40;3.90;;;;;23.10;100824.00;;;;2071854;28;20581;-55
2021/08/12 04:07:28;;;;;;;3.67;3.37;;;;;23.10;100825.00;;;;2068817;28;20219;-53
2021/08/12 04:08:30;;;;;;;4.73;4.33;;;;;23.10;100826.00;;;;2063905;28;20902;-55
2021/08/12 04:09:31;;;;;;;4.95;4.10;;;;;23.10;100829.00;;;;2064406;28;20680;-54
2021/08/12 04:10:31;;;;;;;4.83;4.43;;;;;23.10;100837.00;;;;2067553;28;20223;-55
2021/08/12 04:11:31;;;;;;;3.70;3.40;;;;;23.10;100832.00;;;;2068183;28;20231;-55
2021/08/12 04:12:32;;;;;;;4.07;3.77;;;;;23.10;100845.00;;;;2067932;28;20225;-54
2021/08/12 04:13:32;;;;;;;4.87;4.20;;;;;23.00;100835.00;;;;2068163;28;20242;-54
2021/08/12 04:14:32;;;;;;;3.90;3.60;;;;;23.10;100838.00;;;;2071306;28;20275;-55
2021/08/12 04:15:33;;;;;;;4.00;3.70;;;;;23.10;100836.00;;;;2067952;28;20218;-53
2021/08/12 04:16:34;;;;;;;4.60;3.73;;;;;23.10;100844.00;;;;2067310;28;20221;-55
2021/08/12 04:17:34;;;;;;;4.03;3.60;;;;;23.10;100837.00;;;;2067454;28;20266;-54
2021/08/12 04:18:35;;;;;;;4.23;3.93;;;;;23.10;100837.00;;;;2058795;28;21166;-54
2021/08/12 04:19:35;;;;;;;4.63;4.20;;;;;23.00;100835.00;;;;2063510;28;20215;-55
2021/08/12 04:20:35;;;;;;;4.13;3.83;;;;;23.00;100844.00;;;;2061045;28;20215;-53
2021/08/12 04:21:36;;;;;;;4.27;3.87;;;;;23.00;100839.00;;;;2066783;28;20334;-54
2021/08/12 04:22:36;;;;;;;3.90;3.60;;;;;23.00;100844.00;;;;2063708;28;20226;-55
2021/08/12 04:23:36;;;;;;;4.33;3.93;;;;;23.00;100838.00;;;;2060168;28;20302;-54
2021/08/12 04:24:37;;;;;;;4.47;4.00;;;;;23.00;100839.00;;;;2062660;28;20210;-54
2021/08/12 04:25:37;;;;;;;4.20;3.80;;;;;23.00;100844.00;;;;2063637;28;20634;-53
2021/08/12 04:26:37;;;;;;;4.07;3.67;;;;;23.00;100846.00;;;;2065244;28;20230;-54
2021/08/12 04:27:38;;;;;;;4.13;3.80;;;;;23.00;100836.00;;;;2063666;28;20231;-55
2021/08/12 04:28:38;;;;;;;3.60;3.30;;;;;23.00;100848.00;;;;2063908;28;20210;-55
2021/08/12 04:29:39;;;;;;;4.07;3.77;;;;;23.00;100850.00;;;;2063518;28;20642;-58
2021/08/12 04:30:39;;;;;;;3.90;3.60;;;;;23.00;100837.00;;;;2058979;28;20218;-57
2021/08/12 04:31:40;;;;;;;4.30;3.90;;;;;23.10;100847.00;;;;2060412;28;20223;-55
2021/08/12 04:32:40;;;;;;;4.13;3.77;;;;;23.00;100843.00;;;;2065864;28;20218;-54
2021/08/12 04:33:40;;;;;;;3.80;3.50;;;;;23.00;100844.00;;;;2059461;28;20218;-54
2021/08/12 04:34:41;;;;;;;7.80;4.13;;;;;23.00;100843.00;;;;2065602;28;20215;-56
2021/08/12 04:35:41;;;;;;;3.97;3.67;;;;;23.00;100826.00;;;;2066634;28;20246;-53
2021/08/12 04:36:42;;;;;;;4.53;4.13;;;;;23.00;100830.00;;;;2065684;28;20705;-55
2021/08/12 04:37:44;;;;;;;4.27;3.87;;;;;23.00;100829.00;;;;2055862;28;20215;-54
2021/08/12 04:38:44;;;;;;;4.30;3.95;;;;;23.00;100828.00;;;;2063724;28;20461;-54
2021/08/12 04:39:45;;;;;;;4.37;4.03;;;;;23.00;100824.00;;;;2067075;28;20238;-54
2021/08/12 04:40:45;;;;;;;3.90;3.60;;;;;23.00;100818.00;;;;2067692;28;20565;-54
2021/08/12 04:41:46;;;;;;;4.30;4.00;;;;;23.00;100819.00;;;;2065002;28;20266;-54
2021/08/12 04:42:47;;;;;;;3.90;3.60;;;;;23.00;100825.00;;;;2070550;28;20763;-55
2021/08/12 04:43:48;;;;;;;3.92;3.63;;;;;23.00;100830.00;;;;2067533;28;20683;-54
2021/08/12 04:44:48;;;;;;;4.37;3.80;;;;;23.00;100826.00;;;;2068184;28;20218;-55
2021/08/12 04:45:49;;;;;;;4.70;4.30;;;;;23.00;100825.00;;;;2066073;28;20234;-55
2021/08/12 04:46:49;;;;;;;4.23;3.93;;;;;23.10;100833.00;;;;2067022;28;20705;-54
2021/08/12 04:47:49;;;;;;;4.90;4.03;;;;;23.10;100829.00;;;;2067225;28;20218;-55
2021/08/12 04:48:50;;;;;;;6.07;4.07;;;;;23.10;100833.00;;;;2067421;28;20794;-53
2021/08/12 04:49:50;;;;;;;3.93;3.57;;;;;23.10;100828.00;;;;2066824;28;20233;-55
2021/08/12 04:50:51;;;;;;;4.47;4.03;;;;;23.10;100834.00;;;;2071005;28;20217;-55
2021/08/12 04:51:51;;;;;;;4.07;3.67;;;;;23.20;100836.00;;;;2068112;28;20654;-54
2021/08/12 04:52:51;;;;;;;6.43;4.30;;;;;23.10;100844.00;;;;2067626;28;20303;-52
2021/08/12 04:53:52;;;;;;;4.47;3.87;;;;;23.20;100843.00;;;;2067557;28;20214;-53
2021/08/12 04:54:52;;;;;;;4.97;4.43;;;;;23.10;100844.00;;;;2065351;28;20222;-53
2021/08/12 04:55:52;;;;;;;5.03;3.83;;;;;23.10;100848.00;;;;2067104;28;20215;-53
2021/08/12 04:56:53;;;;;;;4.50;4.10;;;;;23.10;100855.00;;;;2063384;28;20718;-55
2021/08/12 04:57:53;;;;;;;4.70;3.70;;;;;23.20;100863.00;;;;2070242;28;20213;-54
2021/08/12 04:58:57;;;;;;;4.50;4.10;;;;;23.20;100860.00;;;;2070020;28;20229;-54
2021/08/12 04:59:57;;;;;;;5.30;4.13;;;;;23.20;100856.00;;;;2063186;28;20579;-54
2021/08/12 05:00:58;;;;;;;4.53;3.87;;;;;23.10;100851.00;;;;2065421;28;20214;-54
2021/08/12 05:01:58;;;;;;;5.17;3.67;;;;;23.20;100853.00;;;;2068749;28;20883;-54
2021/08/12 05:02:58;;;;;;;4.37;3.97;;;;;23.20;100848.00;;;;2070314;28;20642;-54
2021/08/12 05:03:59;;;;;;;4.90;4.20;;;;;23.10;100850.00;;;;2067724;28;20210;-55
2021/08/12 05:04:59;;;;;;;4.47;4.07;;;;;23.20;100846.00;;;;2066885;28;20203;-55